This is the latest recevied weather packets stored in our database for station/object BMCB-35. If no packets are shown the sender has not sent any weather packets the latest 10 day(s).
| Time | Temp. | Humidity | Pressure | Rain* | Wind** | Luminosity | Snow |
|---|---|---|---|---|---|---|---|
| 1777539032 | 12.22° C | 34% | 1025.9 hPa | 0 mm | - | 589 W/m² | - |
| 1777537805 | 11.67° C | 35% | 1025.8 hPa | 0 mm | - | 545 W/m² | - |
| 1777533621 | 10.56° C | 37% | 1026.2 hPa | 0 mm | - | 385 W/m² | - |
| 1777533024 | 10° C | 37% | 1026.2 hPa | 0 mm | - | 357 W/m² | - |
| 1777531805 | 9.44° C | 38% | 1026 hPa | 0 mm | - | 270 W/m² | - |
| 1777529438 | 8.89° C | 39% | 1026 hPa | 0 mm | - | 182 W/m² | - |
| 1777529433 | 8.89° C | 39% | 1025.9 hPa | 0 mm | - | 156 W/m² | - |
| 1777528808 | 8.89° C | 39% | 1025.9 hPa | 0 mm | - | 156 W/m² | - |
| 1777527624 | 7.78° C | 41% | 1025.8 hPa | 0 mm | - | 40 W/m² | - |
| 1777526406 | 7.78° C | 42% | 1025.8 hPa | 0 mm | - | 16 W/m² | - |
| 1777524044 | 7.78° C | 41% | 1025.6 hPa | 0 mm | - | 4 W/m² | - |
| 1777522226 | 7.78° C | 40% | 1025.4 hPa | 0 mm | - | 0 W/m² | - |
| 1777522222 | 8.33° C | 40% | 1025.3 hPa | 0 mm | - | 0 W/m² | - |
| 1777519838 | 8.33° C | 40% | 1025.4 hPa | 0 mm | - | 0 W/m² | - |
| 1777519833 | 8.33° C | 41% | 1025.4 hPa | 0 mm | - | 0 W/m² | - |
| 1777518627 | 8.33° C | 42% | 1025.2 hPa | 0 mm | - | 0 W/m² | - |
| 1777516814 | 8.33° C | 42% | 1025.2 hPa | 0 mm | - | 0 W/m² | - |
| 1777516204 | 8.89° C | 41% | 1025.2 hPa | 0 mm | - | 0 W/m² | - |
| 1777515634 | 8.89° C | 41% | 1025.2 hPa | 0 mm | - | 0 W/m² | - |
| 1777515037 | 9.44° C | 40% | 1025.3 hPa | 0 mm | - | 0 W/m² | - |
| 1777513840 | 9.44° C | 40% | 1025.2 hPa | 0 mm | - | 0 W/m² | - |
| 1777513836 | 9.44° C | 39% | 1025.1 hPa | 0 mm | - | 0 W/m² | - |
| 1777512020 | 10° C | 39% | 1025.1 hPa | 0 mm | - | 0 W/m² | - |
| 1777512014 | 10° C | 39% | 1025 hPa | 0 mm | - | 0 W/m² | - |
| 1777511434 | 10° C | 39% | 1024.9 hPa | 0 mm | - | 0 W/m² | - |
* Rain latest hour (hover to see other rain measurements)
** Current wind speed in m/s (hover to see current wind gust speed)